aviador You're here:

LYNI Decoded Metar

NIS in SERBIA
Report Time2018-04-27 02:30:00
UTC Time2018-04-27 03:02:09
Flight Rules vfr VFR
Wind330° at 23 Gusting to 34 kt
W.Decomp.*RWY 29: 18.4 kt HW 13.8 kt RCW
W.Rank330° ranks 2
Current wind is above 330° avg. (9.8)
Visibility9999 m
Phenomena:N/A
Clouds:N/A
Expected CloudBase > 2,800 ft AGL from Temp-Dew spread
CeilingNone
Temp15°C (ISA +1)
Dew Point08°C (63% RH)
AAT6.3°C
QNH1015 hPa
Density Alt899 ft
Elevation663 ft
Report Wrong Elevation
Raw Report
LYNI 270230Z 33023G34KT CAVOK 15/08 Q1015 NOSIG=

Extra information for LYNI:More info

Metar Taf Metar & Taf Last 4 Metars F.Rules Stats Wind Profile Meteogram Temp Stats Airport Information Weather charts Add Link Nearby VenuesMetar ALERT Operation Metar Decoded Social comments